Terminal Aerodrome Forecast
Issued by NWS

Home | Current Version | Previous Version | Text Only | Print | Product List | Glossary On
Versions: 1 2 3 4 5 6 7 8 9 10 11 12
000
FTUS45 KBOI 231128
TAFJER
TAF
KJER 231128Z 2312/2412 25015G25KT 1SM -SN OVC006
     FM231700 26022G34KT 2SM -SN OVC009
     FM240200 24015G25KT 6SM BR VCSH OVC009
      AMD NOT SKED=

USA.gov is the U.S. government's official web portal to all federal, state and local government web resources and services.